Terminal Aerodrome Forecast
Issued by NWS

Home | Current Version | Previous Version | Text Only | Print | Product List | Glossary On
Versions: 1 2 3 4 5 6 7 8 9 10 11 12 13 14 15 16 17 18 19 20 21 22
000
FTUS43 KOAX 142300
TAFCDR
TAF
KCDR 142331Z 1500/1524 04013KT P6SM SKC
     FM150300 02008KT P6SM BKN050
     FM150600 VRB04KT P6SM BKN007 OVC015
     FM151600 18008KT P6SM SCT250=

USA.gov is the U.S. government's official web portal to all federal, state and local government web resources and services.